Time;durP1;ratioP1;P1;durP2;ratioP2;P2;SDS_P1;SDS_P2;PMS_P1;PMS_P2;Temp;Humidity;BMP_temperature;BMP_pressure;BME280_temperature;BME280_humidity;BME280_pressure;Samples;Min_cycle;Max_cycle;Signal;HPM_P1;HPM_P2
2023/09/23 00:01:44;;;;;;;6.60;3.42;;;13.70;99.90;;;12.63;100.00;100238.78;4935341;28;20162;-76
2023/09/23 00:04:10;;;;;;;5.20;2.92;;;13.70;99.90;;;12.62;100.00;100237.94;4935913;28;20032;-78
2023/09/23 00:06:35;;;;;;;5.85;2.78;;;13.60;99.90;;;12.60;100.00;100234.53;4948488;28;20156;-77
2023/09/23 00:09:03;;;;;;;7.25;3.17;;;13.60;99.90;;;12.52;100.00;100229.72;4919208;28;20039;-77
2023/09/23 00:11:29;;;;;;;5.55;3.22;;;13.60;99.90;;;12.44;100.00;100234.66;4933324;28;20744;-77
2023/09/23 00:13:54;;;;;;;7.80;3.70;;;13.50;99.90;;;12.36;100.00;100236.91;4951673;28;20122;-77
2023/09/23 00:16:21;;;;;;;6.97;3.70;;;13.40;99.90;;;12.26;100.00;100231.34;4933531;28;20046;-78
2023/09/23 00:18:47;;;;;;;5.18;3.47;;;13.40;99.90;;;12.20;100.00;100229.09;4916958;28;20401;-77
2023/09/23 00:21:13;;;;;;;6.47;3.38;;;13.30;99.90;;;12.23;100.00;100225.44;4933566;28;20039;-77
2023/09/23 00:23:40;;;;;;;6.32;3.28;;;13.30;99.90;;;12.23;100.00;100228.91;4933137;28;20048;-77
2023/09/23 00:26:10;;;;;;;7.47;3.42;;;13.30;99.90;;;12.16;100.00;100224.09;4952152;28;20094;-77
2023/09/23 00:28:36;;;;;;;6.43;3.47;;;13.30;99.90;;;12.16;100.00;100224.09;4934761;28;20144;-77
2023/09/23 00:31:10;;;;;;;5.03;3.08;;;13.20;99.90;;;12.17;100.00;100220.53;4935238;28;20507;-77
2023/09/23 00:33:37;;;;;;;6.07;3.65;;;13.30;99.90;;;12.17;100.00;100220.53;4935383;28;20048;-77
2023/09/23 00:36:05;;;;;;;7.65;3.58;;;13.30;99.90;;;12.18;100.00;100223.06;4933750;28;20111;-78
2023/09/23 00:38:32;;;;;;;7.35;3.78;;;13.30;99.90;;;12.23;100.00;100226.28;4916720;28;20070;-77
2023/09/23 00:40:58;;;;;;;7.28;3.55;;;13.30;99.90;;;12.25;100.00;100226.19;4949908;28;20682;-77
2023/09/23 00:43:24;;;;;;;10.00;4.53;;;13.30;99.90;;;12.27;100.00;100226.94;4932398;28;20606;-77
2023/09/23 00:45:54;;;;;;;5.70;3.83;;;13.40;99.90;;;12.29;100.00;100225.91;4932155;28;20031;-77
2023/09/23 00:48:21;;;;;;;10.70;3.50;;;13.40;99.90;;;12.29;100.00;100225.91;4931986;28;20032;-77
2023/09/23 00:50:48;;;;;;;5.47;3.45;;;13.40;99.90;;;12.29;100.00;100227.69;4932449;28;20043;-78
2023/09/23 00:53:15;;;;;;;10.20;3.60;;;13.40;99.90;;;12.32;100.00;100230.97;4934336;28;20493;-77
2023/09/23 00:55:51;;;;;;;7.78;3.70;;;13.40;99.90;;;12.34;100.00;100236.16;4922180;28;20107;-77
2023/09/23 00:58:21;;;;;;;5.32;3.38;;;13.50;99.90;;;12.36;100.00;100244.00;4932847;28;20550;-78
2023/09/23 01:00:51;;;;;;;8.07;3.47;;;13.50;99.90;;;12.38;100.00;100250.88;4935952;28;20456;-76
2023/09/23 01:03:19;;;;;;;6.78;3.15;;;13.50;99.90;;;12.40;100.00;100246.34;4938605;28;20093;-78
2023/09/23 01:05:45;;;;;;;5.72;3.42;;;13.50;99.90;;;12.41;100.00;100248.03;4922434;29;20039;-78
2023/09/23 01:08:20;;;;;;;8.90;3.53;;;13.50;99.90;;;12.39;100.00;100257.84;4902211;28;20093;-77
2023/09/23 01:10:49;;;;;;;6.78;3.88;;;13.40;99.90;;;12.36;100.00;100247.47;4938000;28;20392;-78
2023/09/23 01:13:19;;;;;;;7.80;4.05;;;13.50;99.90;;;12.37;100.00;100256.25;4936789;28;20035;-77
2023/09/23 01:15:46;;;;;;;7.82;3.90;;;13.40;99.90;;;12.34;100.00;100249.38;4933455;28;20102;-77
2023/09/23 01:18:15;;;;;;;6.30;4.18;;;13.40;99.90;;;12.31;100.00;100249.56;4933759;28;20070;-77
2023/09/23 01:20:47;;;;;;;7.70;4.20;;;13.40;99.90;;;12.33;100.00;100250.28;4923936;28;20045;-77
2023/09/23 01:23:12;;;;;;;10.70;4.30;;;13.40;99.90;;;12.29;100.00;100254.09;4933924;28;20046;-77
2023/09/23 01:25:39;;;;;;;9.35;4.30;;;13.40;99.90;;;12.27;100.00;100248.06;4952508;28;20039;-78
2023/09/23 01:28:11;;;;;;;7.03;4.30;;;13.40;99.90;;;12.26;100.00;100256.91;4933210;28;20047;-78
2023/09/23 01:30:38;;;;;;;14.20;4.47;;;13.40;99.90;;;12.26;100.00;100256.91;4933474;28;20047;-78
2023/09/23 01:33:07;;;;;;;6.20;4.57;;;13.40;99.90;;;12.25;100.00;100252.56;4916120;28;20574;-78
2023/09/23 01:35:33;;;;;;;8.98;4.85;;;13.40;99.90;;;12.25;100.00;100260.50;4894565;29;20040;-77
2023/09/23 01:38:04;;;;;;;11.80;4.65;;;13.40;99.90;;;12.23;100.00;100263.22;4920133;29;20066;-77
2023/09/23 01:40:31;;;;;;;6.47;4.57;;;13.30;99.90;;;12.25;100.00;100245.50;4932547;28;20090;-77
2023/09/23 01:42:58;;;;;;;7.85;4.90;;;13.40;99.90;;;12.24;100.00;100241.16;4954315;28;20035;-78
2023/09/23 01:45:26;;;;;;;6.63;4.70;;;13.30;99.90;;;12.23;100.00;100246.53;4917260;28;20047;-78
2023/09/23 01:47:55;;;;;;;11.82;4.80;;;13.30;99.90;;;12.22;100.00;100250.09;4916129;28;20409;-77
2023/09/23 01:50:22;;;;;;;7.80;5.10;;;13.30;99.90;;;12.21;100.00;100243.16;4935389;28;20124;-77
2023/09/23 01:52:47;;;;;;;7.80;5.03;;;13.30;99.90;;;12.19;100.00;100245.03;4931659;28;20576;-77
2023/09/23 01:55:16;;;;;;;11.70;5.38;;;13.20;99.90;;;12.14;100.00;100240.03;4934022;28;20122;-77
2023/09/23 01:57:42;;;;;;;9.45;5.95;;;13.20;99.90;;;12.11;100.00;100242.84;4935842;28;20036;-77
2023/09/23 02:00:17;;;;;;;8.48;6.47;;;13.20;99.90;;;12.06;100.00;100237.00;4941322;28;20041;-77
2023/09/23 02:02:44;;;;;;;8.43;6.32;;;13.10;99.90;;;11.93;100.00;100239.53;4937513;28;20563;-78
2023/09/23 02:05:10;;;;;;;13.88;7.40;;;13.00;99.90;;;11.86;100.00;100243.47;4935441;28;20094;-78
2023/09/23 02:07:36;;;;;;;11.45;7.22;;;13.00;99.90;;;11.81;100.00;100230.50;4921191;28;20051;-78
2023/09/23 02:10:02;;;;;;;13.23;7.57;;;12.90;99.90;;;11.73;100.00;100231.91;4936135;28;20673;-78
2023/09/23 02:12:28;;;;;;;18.25;7.90;;;12.80;99.90;;;11.60;100.00;100237.94;4935617;28;20035;-77
2023/09/23 02:14:53;;;;;;;8.32;5.97;;;12.80;99.90;;;11.60;100.00;100235.28;4936286;28;20066;-77
2023/09/23 02:17:20;;;;;;;14.18;7.70;;;12.80;99.90;;;11.57;100.00;100230.19;4936226;28;20937;-77
2023/09/23 02:19:47;;;;;;;15.30;7.68;;;12.70;99.90;;;11.54;100.00;100227.75;4936905;28;20062;-78
2023/09/23 02:22:13;;;;;;;10.95;7.65;;;12.70;99.90;;;11.54;100.00;100235.66;4939838;28;20031;-77
2023/09/23 02:24:40;;;;;;;10.13;7.95;;;12.70;99.90;;;11.56;100.00;100241.69;4959353;28;20050;-77
2023/09/23 02:27:06;;;;;;;12.80;8.15;;;12.70;99.90;;;11.59;100.00;100245.91;4920006;28;20114;-78
2023/09/23 02:29:32;;;;;;;15.90;8.10;;;12.70;99.90;;;11.64;100.00;100251.75;4920646;28;20039;-78
2023/09/23 02:32:00;;;;;;;10.55;7.55;;;12.80;99.90;;;11.65;100.00;100259.59;4934776;28;20433;-78
2023/09/23 02:34:26;;;;;;;11.50;7.63;;;12.80;99.90;;;11.69;100.00;100262.91;4937877;28;20043;-77
2023/09/23 02:36:52;;;;;;;11.88;8.05;;;12.80;99.90;;;11.69;100.00;100261.13;4957044;28;20059;-78
2023/09/23 02:39:21;;;;;;;12.25;7.57;;;12.80;99.90;;;11.66;100.00;100263.06;4918760;28;20055;-78
2023/09/23 02:41:50;;;;;;;13.27;8.55;;;12.80;99.90;;;11.66;100.00;100265.72;4942663;28;20308;-77
2023/09/23 02:44:22;;;;;;;14.38;8.20;;;12.80;99.90;;;11.64;100.00;100257.91;4918744;28;20401;-78
2023/09/23 02:46:55;;;;;;;17.15;8.80;;;12.70;99.90;;;11.61;100.00;100260.72;4952602;28;20032;-78
2023/09/23 02:49:21;;;;;;;19.48;8.30;;;12.70;99.90;;;11.53;100.00;100262.94;4939004;28;20078;-77
2023/09/23 02:51:49;;;;;;;17.05;10.18;;;12.70;99.90;;;11.53;100.00;100275.28;4919464;28;20067;-78
2023/09/23 02:54:17;;;;;;;15.70;9.52;;;12.60;99.90;;;11.47;100.00;100269.44;4917567;28;20042;-78
2023/09/23 02:56:47;;;;;;;15.15;9.85;;;12.60;99.90;;;11.41;100.00;100267.13;4918786;28;20042;-77
2023/09/23 02:59:15;;;;;;;20.42;11.77;;;12.60;99.90;;;11.38;100.00;100266.47;4937880;28;20050;-77
2023/09/23 03:01:45;;;;;;;15.52;10.73;;;12.50;99.90;;;11.37;100.00;100272.69;4934139;28;20480;-78
2023/09/23 03:04:23;;;;;;;16.05;11.50;;;12.50;99.90;;;11.37;100.00;100272.69;4935599;28;20052;-77
2023/09/23 03:06:54;;;;;;;16.92;10.07;;;12.50;99.90;;;11.32;100.00;100274.72;4937245;28;20110;-77
2023/09/23 03:09:23;;;;;;;23.20;12.48;;;12.50;99.90;;;11.28;100.00;100272.25;4932792;28;20023;-77
2023/09/23 03:11:55;;;;;;;17.75;10.90;;;12.40;99.90;;;11.29;100.00;100270.47;4924380;28;20039;-78
2023/09/23 03:14:40;;;;;;;17.70;11.25;;;12.50;99.90;;;11.24;100.00;100275.16;4934434;28;20047;-77
2023/09/23 03:17:09;;;;;;;21.45;11.07;;;12.40;99.90;;;11.20;100.00;100265.72;4954768;28;20110;-78
2023/09/23 03:19:36;;;;;;;21.27;13.90;;;12.30;99.90;;;11.14;100.00;100276.59;4933982;28;20112;-78
2023/09/23 03:22:02;;;;;;;21.40;13.43;;;12.30;99.90;;;11.12;100.00;100267.94;4936045;28;20031;-77
2023/09/23 03:24:29;;;;;;;17.90;10.32;;;12.30;99.90;;;11.06;100.00;100269.16;4936192;28;20040;-78
2023/09/23 03:27:00;;;;;;;29.42;14.43;;;12.20;99.90;;;10.97;100.00;100269.63;4933665;28;20067;-78
2023/09/23 03:29:31;;;;;;;27.33;16.05;;;12.20;99.90;;;10.93;100.00;100268.97;4954640;28;20066;-78
2023/09/23 03:31:58;;;;;;;27.25;15.60;;;12.10;99.90;;;10.95;100.00;100277.66;4946862;28;20039;-78
2023/09/23 03:34:25;;;;;;;28.73;17.25;;;12.10;99.90;;;10.92;100.00;100282.22;4920010;28;20043;-78
2023/09/23 03:36:54;;;;;;;27.38;15.50;;;12.10;99.90;;;10.90;100.00;100271.75;4951384;28;20047;-77
2023/09/23 03:39:21;;;;;;;24.70;13.55;;;12.10;99.90;;;10.88;100.00;100276.25;4933647;28;20641;-78
2023/09/23 03:41:47;;;;;;;25.85;15.02;;;12.10;99.90;;;10.85;100.00;100272.03;4951258;28;20031;-77
2023/09/23 03:44:16;;;;;;;26.90;15.48;;;12.00;99.90;;;10.84;100.00;100270.34;4917198;28;20561;-77
2023/09/23 03:46:50;;;;;;;27.77;15.75;;;12.00;99.90;;;10.81;100.00;100273.13;4922163;28;20087;-78
2023/09/23 03:49:20;;;;;;;22.88;14.82;;;12.00;99.90;;;10.77;100.00;100268.94;4937432;28;20039;-78
2023/09/23 03:51:46;;;;;;;30.90;14.95;;;12.00;99.90;;;10.78;100.00;100272.47;4934145;28;20043;-78
2023/09/23 03:54:12;;;;;;;27.58;14.77;;;12.00;99.90;;;10.76;100.00;100275.16;4952451;28;20040;-78
2023/09/23 03:56:40;;;;;;;30.98;16.65;;;12.00;99.90;;;10.70;100.00;100267.59;4915382;28;20063;-78
2023/09/23 03:59:06;;;;;;;12.63;9.95;;;11.90;99.90;;;10.67;100.00;100268.63;4953556;28;20047;-77
2023/09/23 04:01:33;;;;;;;23.35;14.60;;;11.90;99.90;;;10.71;100.00;100273.72;4918990;28;20036;-77
2023/09/23 04:04:01;;;;;;;28.77;17.23;;;11.90;99.90;;;10.76;100.00;100275.16;4934421;28;20043;-78
2023/09/23 04:06:27;;;;;;;27.48;16.48;;;12.00;99.90;;;10.81;100.00;100273.13;4952904;28;20770;-78
2023/09/23 04:08:54;;;;;;;30.38;17.05;;;12.00;99.90;;;10.88;100.00;100279.78;4933525;28;20482;-77
2023/09/23 04:11:20;;;;;;;27.85;17.38;;;12.10;99.90;;;10.95;100.00;100288.19;4953984;28;20027;-77
2023/09/23 04:13:46;;;;;;;27.73;18.55;;;12.10;99.90;;;10.99;100.00;100286.22;4935507;28;20131;-78
2023/09/23 04:16:12;;;;;;;22.02;15.52;;;12.20;99.90;;;11.02;100.00;100289.53;4922746;28;20039;-77
2023/09/23 04:18:37;;;;;;;22.38;16.30;;;12.20;99.90;;;11.04;100.00;100292.94;4935658;28;20047;-78
2023/09/23 04:21:04;;;;;;;26.67;16.05;;;12.20;99.90;;;11.04;100.00;100307.91;4931791;28;20039;-78
2023/09/23 04:23:30;;;;;;;24.77;15.13;;;12.20;99.90;;;11.08;100.00;100326.09;4939590;28;20110;-78
2023/09/23 04:25:56;;;;;;;34.13;18.95;;;12.20;99.90;;;11.05;100.00;100310.44;4952619;28;20669;-78
2023/09/23 04:28:22;;;;;;;20.02;14.40;;;12.20;99.90;;;11.03;100.00;100320.19;4949295;28;20045;-78
2023/09/23 04:30:53;;;;;;;25.17;14.38;;;12.20;99.90;;;11.04;100.00;100331.63;4933148;28;20031;-78
2023/09/23 04:33:20;;;;;;;20.35;13.82;;;12.20;99.90;;;11.02;100.00;100326.41;4935479;28;20043;-78
2023/09/23 04:35:47;;;;;;;22.25;13.20;;;12.10;99.90;;;10.99;100.00;100331.00;4931635;28;20050;-78
2023/09/23 04:38:15;;;;;;;28.92;14.35;;;12.10;99.90;;;10.96;100.00;100328.53;4934417;28;20035;-78
2023/09/23 04:40:42;;;;;;;11.43;9.35;;;12.00;99.90;;;10.93;100.00;100332.19;4932586;28;20067;-77
2023/09/23 04:43:16;;;;;;;16.77;11.70;;;12.00;99.90;;;10.91;100.00;100338.47;5055248;27;20413;-76
2023/09/23 04:45:42;;;;;;;16.90;12.80;;;12.00;99.90;;;10.85;100.00;100332.59;5048095;28;20407;-77
2023/09/23 04:48:08;;;;;;;29.33;17.05;;;12.00;99.90;;;10.83;100.00;100329.19;5054902;28;20116;-77
2023/09/23 04:50:34;;;;;;;25.30;15.32;;;12.00;99.90;;;10.83;100.00;100331.84;5053480;28;20083;-77
2023/09/23 04:53:02;;;;;;;34.13;17.77;;;12.10;99.90;;;10.72;100.00;100326.28;5069930;28;20093;-77
2023/09/23 04:55:28;;;;;;;28.45;16.48;;;12.00;99.90;;;10.79;100.00;100322.41;5068139;28;20032;-77
2023/09/23 04:57:55;;;;;;;28.10;16.02;;;11.90;99.90;;;10.81;100.00;100324.94;5067588;27;20021;-77
2023/09/23 05:00:22;;;;;;;27.85;17.63;;;12.00;99.90;;;10.84;100.00;100333.56;5074327;27;20078;-76
2023/09/23 05:02:49;;;;;;;26.17;16.42;;;12.00;99.90;;;10.92;100.00;100333.13;5059483;28;20045;-78
2023/09/23 05:05:17;;;;;;;30.67;19.15;;;12.10;99.90;;;11.00;100.00;100330.06;5071001;27;20682;-77
2023/09/23 05:07:43;;;;;;;38.20;17.92;;;12.20;99.90;;;11.03;100.00;100317.56;5065667;28;20036;-77
2023/09/23 05:10:12;;;;;;;24.23;16.27;;;12.20;99.90;;;11.12;100.00;100324.13;5068450;28;20053;-77
2023/09/23 05:12:42;;;;;;;23.20;16.17;;;12.30;99.90;;;11.17;100.00;100335.28;5067527;28;20063;-77
2023/09/23 05:15:10;;;;;;;16.45;11.75;;;12.30;99.90;;;11.22;100.00;100335.84;5067680;28;20035;-77
2023/09/23 05:17:37;;;;;;;31.13;17.63;;;12.40;99.90;;;11.29;100.00;100341.63;5069318;28;20456;-77
2023/09/23 05:20:20;;;;;;;337.63;102.38;;;12.40;99.90;;;11.39;100.00;100355.16;5063132;28;20032;-76
2023/09/23 05:22:46;;;;;;;29.52;16.13;;;12.50;99.90;;;11.48;100.00;100350.22;5072029;27;20036;-77
2023/09/23 05:25:12;;;;;;;27.50;16.25;;;12.60;99.90;;;11.52;100.00;100350.06;5058006;28;20418;-77
2023/09/23 05:27:38;;;;;;;25.83;16.27;;;12.60;99.90;;;11.55;100.00;100355.97;5069570;28;20102;-77
2023/09/23 05:30:07;;;;;;;26.20;16.42;;;12.70;99.90;;;11.62;100.00;100354.72;5065076;28;20592;-76
2023/09/23 05:32:34;;;;;;;17.95;14.13;;;12.70;99.90;;;11.69;100.00;100352.59;5055901;28;20028;-77
2023/09/23 05:35:01;;;;;;;17.98;11.50;;;12.80;99.90;;;11.83;100.00;100359.69;5062362;27;20088;-77
2023/09/23 05:37:26;;;;;;;23.58;13.52;;;12.80;99.90;;;11.90;100.00;100361.94;5066233;28;20111;-77
2023/09/23 05:39:53;;;;;;;21.33;13.43;;;12.90;99.90;;;11.94;100.00;100359.94;5057719;27;20039;-77
2023/09/23 05:42:23;;;;;;;14.85;12.18;;;13.00;99.90;;;12.06;100.00;100375.06;5056946;28;20414;-77
2023/09/23 05:44:50;;;;;;;2.92;2.72;;;13.10;99.90;;;12.19;100.00;100377.00;5077474;28;20042;-77
2023/09/23 05:47:15;;;;;;;25.10;14.15;;;13.10;99.90;;;12.30;100.00;100372.78;5074990;27;20039;-77
2023/09/23 05:49:42;;;;;;;18.98;11.05;;;13.20;99.90;;;12.44;100.00;100382.53;5052928;28;20043;-77
2023/09/23 05:52:10;;;;;;;15.90;10.73;;;13.30;99.90;;;12.60;100.00;100392.16;5068363;28;20028;-78
2023/09/23 05:54:36;;;;;;;17.05;11.88;;;13.40;99.90;;;12.76;100.00;100392.06;5055244;28;20119;-77
2023/09/23 05:57:01;;;;;;;14.38;9.80;;;13.50;99.90;;;12.92;100.00;100393.69;5052386;28;20111;-77
2023/09/23 05:59:28;;;;;;;16.17;9.57;;;13.60;99.90;;;13.16;100.00;100394.91;5059547;28;20509;-78
2023/09/23 06:01:54;;;;;;;17.17;10.02;;;13.80;99.90;;;13.38;100.00;100387.34;5064690;28;20506;-77
2023/09/23 06:04:19;;;;;;;12.70;9.23;;;14.00;99.90;;;13.41;100.00;100388.94;5058164;28;20044;-77
2023/09/23 06:06:45;;;;;;;15.60;9.60;;;14.10;99.90;;;13.44;100.00;100397.53;5036292;28;20673;-77
2023/09/23 06:09:11;;;;;;;12.98;8.82;;;14.20;99.90;;;13.45;100.00;100403.66;5052256;28;20033;-76
2023/09/23 06:11:37;;;;;;;13.63;9.35;;;14.20;99.90;;;13.48;100.00;100414.06;5056159;28;20182;-77
2023/09/23 06:14:03;;;;;;;12.38;7.57;;;14.20;99.90;;;13.49;100.00;100406.00;5044101;28;20099;-77
2023/09/23 06:16:29;;;;;;;12.48;7.63;;;14.20;99.90;;;13.52;100.00;100403.19;5051227;28;20041;-77
2023/09/23 06:18:54;;;;;;;11.27;7.82;;;14.20;99.90;;;13.58;100.00;100412.50;5050568;28;20045;-77
2023/09/23 06:21:20;;;;;;;11.05;6.80;;;14.30;99.90;;;14.01;100.00;100415.00;5042802;28;20049;-77
2023/09/23 06:23:46;;;;;;;8.00;5.53;;;14.40;99.90;;;14.80;100.00;100426.53;5058561;28;20041;-77
2023/09/23 06:26:12;;;;;;;5.50;4.45;;;14.70;99.90;;;15.54;96.27;100430.13;5052486;28;20040;-76
2023/09/23 06:28:38;;;;;;;8.88;5.00;;;15.30;99.90;;;17.45;87.25;100446.78;5054087;28;20040;-77
2023/09/23 06:31:06;;;;;;;7.22;4.40;;;16.10;99.90;;;20.01;77.29;100465.06;5040599;28;20048;-77
2023/09/23 06:33:32;;;;;;;8.80;4.22;;;17.20;99.90;;;22.64;68.49;100484.69;5055666;28;20028;-77
2023/09/23 06:36:04;;;;;;;6.95;3.25;;;18.70;99.90;;;25.14;60.53;100508.31;5040137;28;21037;-77
2023/09/23 06:38:31;;;;;;;5.63;3.15;;;20.20;99.90;;;26.60;56.33;100538.38;5038063;28;20032;-77
2023/09/23 06:40:56;;;;;;;4.55;2.40;;;21.60;99.90;;;28.15;52.09;100572.09;5042280;28;20044;-76
2023/09/23 06:43:22;;;;;;;6.53;2.25;;;22.90;99.90;;;29.08;49.96;100585.75;5033154;28;20036;-77
2023/09/23 06:45:58;;;;;;;3.45;2.30;;;24.00;99.90;;;30.00;48.04;100607.25;5052719;28;20398;-76
2023/09/23 06:48:25;;;;;;;4.30;3.95;;;24.80;99.90;;;27.35;50.37;100579.13;5054871;28;20149;-76
2023/09/23 06:51:01;;;;;;;5.38;2.50;;;24.70;99.90;;;26.22;52.55;100569.84;5052448;28;20032;-77
2023/09/23 06:53:30;;;;;;;5.07;2.33;;;24.20;99.90;;;25.06;53.99;100568.47;5051766;28;20311;-77
2023/09/23 06:55:56;;;;;;;5.68;2.45;;;23.50;99.90;;;22.44;58.78;100532.28;5043853;28;20066;-76
2023/09/23 06:58:22;;;;;;;7.20;2.35;;;22.50;99.90;;;20.68;62.99;100524.94;5045801;28;20036;-77
2023/09/23 07:00:48;;;;;;;5.30;2.45;;;21.40;99.90;;;19.50;66.03;100503.44;5029557;28;20056;-76
2023/09/23 07:03:14;;;;;;;5.22;2.33;;;20.40;99.90;;;18.64;69.11;100500.97;5050935;28;20072;-77
2023/09/23 07:05:41;;;;;;;6.30;2.95;;;19.70;99.90;;;18.24;71.42;100501.59;5053626;28;20046;-78
2023/09/23 07:08:07;;;;;;;4.80;2.53;;;19.10;99.90;;;18.00;72.70;100504.47;5053993;28;20043;-77
2023/09/23 07:10:38;;;;;;;4.00;2.63;;;18.70;99.90;;;17.45;74.49;100500.03;5055636;28;20032;-77
2023/09/23 07:13:04;;;;;;;7.40;2.50;;;18.40;99.90;;;17.19;75.83;100492.25;5035463;28;20040;-80
2023/09/23 07:15:40;;;;;;;7.10;2.70;;;18.10;99.90;;;16.96;77.25;100500.22;5041088;28;20291;-76
2023/09/23 07:18:07;;;;;;;4.03;2.20;;;18.00;99.90;;;17.53;76.78;100502.94;5050879;28;20056;-77
2023/09/23 07:20:34;;;;;;;7.32;2.22;;;18.10;99.90;;;18.09;75.40;100513.53;5051320;28;20033;-75
2023/09/23 07:23:00;;;;;;;3.85;2.40;;;18.70;99.90;;;20.88;68.43;100540.97;5053985;28;20103;-76
2023/09/23 07:25:27;;;;;;;4.95;2.30;;;20.00;99.90;;;22.63;62.85;100553.59;5051357;28;20040;-76
2023/09/23 07:27:54;;;;;;;4.97;2.17;;;21.50;99.90;;;24.22;58.85;100577.59;5042389;28;20033;-76
2023/09/23 07:30:20;;;;;;;4.38;2.15;;;22.60;99.90;;;23.61;59.31;100572.28;5040592;28;20394;-76
2023/09/23 07:32:45;;;;;;;6.88;2.20;;;23.10;99.90;;;23.45;58.90;100574.88;5058054;28;20047;-79
2023/09/23 07:35:12;;;;;;;3.78;2.30;;;23.40;99.90;;;24.59;57.31;100596.03;5039198;28;20036;-77
2023/09/23 07:37:37;;;;;;;4.15;2.42;;;24.00;99.90;;;25.28;55.76;100604.66;5039492;28;20043;-77
2023/09/23 07:40:06;;;;;;;4.18;2.05;;;24.80;99.90;;;25.95;54.36;100612.44;5050128;28;20041;-77
2023/09/23 07:42:32;;;;;;;4.60;2.33;;;25.60;99.90;;;26.71;52.96;100625.38;5043599;28;20847;-78
2023/09/23 07:44:58;;;;;;;4.70;1.80;;;26.40;99.90;;;27.13;50.71;100641.13;5052414;28;20394;-78
2023/09/23 07:47:23;;;;;;;4.53;2.20;;;26.80;99.90;;;26.57;51.71;100637.81;5037848;28;20029;-77
2023/09/23 07:49:49;;;;;;;4.80;2.20;;;26.60;99.90;;;25.63;52.21;100640.31;5052356;28;20655;-76
2023/09/23 07:52:15;;;;;;;4.03;2.03;;;26.20;99.90;;;24.84;53.59;100640.00;5049220;28;20048;-76
2023/09/23 07:54:40;;;;;;;4.78;1.90;;;25.70;99.90;;;25.00;53.34;100647.25;5048860;28;20044;-77
2023/09/23 07:57:06;;;;;;;4.28;1.60;;;25.40;99.90;;;24.05;54.95;100631.34;5062904;28;20043;-77
2023/09/23 07:59:32;;;;;;;1999.90;999.90;;;25.00;99.90;;;23.31;55.64;100627.34;5053958;28;20045;-78
2023/09/23 08:01:58;;;;;;;5.68;2.45;;;24.60;99.90;;;23.04;57.25;100637.19;5055038;28;20668;-76
2023/09/23 08:04:23;;;;;;;8.48;2.78;;;24.40;99.90;;;23.59;56.49;100648.72;5057377;28;20039;-76
2023/09/23 08:06:49;;;;;;;5.78;2.17;;;24.50;99.90;;;23.99;55.41;100663.41;5055078;28;20037;-77
2023/09/23 08:09:15;;;;;;;4.30;2.15;;;24.60;99.90;;;23.64;55.53;100651.75;5030714;28;20129;-77
2023/09/23 08:11:40;;;;;;;4.45;2.00;;;24.40;99.90;;;23.27;56.34;100666.28;5044035;28;20064;-76
2023/09/23 08:14:06;;;;;;;5.28;1.83;;;23.90;99.90;;;22.25;58.15;100651.31;5038315;28;20043;-77
2023/09/23 08:16:32;;;;;;;3.45;2.05;;;23.20;99.90;;;21.29;59.75;100657.59;5039323;28;20112;-76
2023/09/23 08:18:57;;;;;;;5.68;2.53;;;22.40;99.90;;;20.58;61.60;100641.81;5039284;28;21523;-77
2023/09/23 08:21:23;;;;;;;5.55;2.20;;;21.60;99.90;;;19.85;63.30;100635.78;5043424;28;20128;-77
2023/09/23 08:23:49;;;;;;;7.45;2.30;;;20.90;99.90;;;19.19;64.76;100639.56;5053240;28;20045;-77
2023/09/23 08:26:15;;;;;;;4.40;2.63;;;20.30;99.90;;;18.67;66.00;100630.53;5051538;28;20037;-77
2023/09/23 08:28:42;;;;;;;4.78;2.45;;;19.80;99.90;;;18.17;67.48;100624.81;5048706;28;20063;-77
2023/09/23 08:31:15;;;;;;;6.53;3.83;;;19.30;99.90;;;17.83;68.68;100631.00;5035618;28;20033;-76
2023/09/23 08:33:41;;;;;;;3.38;1.73;;;18.90;99.90;;;17.47;69.95;100631.16;5055031;28;20590;-77
2023/09/23 08:36:06;;;;;;;4.93;2.80;;;18.60;99.90;;;17.21;70.91;100642.00;5043408;28;20052;-77
2023/09/23 08:38:32;;;;;;;7.15;2.53;;;18.30;99.90;;;16.95;71.47;100638.63;5041996;28;20037;-77
2023/09/23 08:41:01;;;;;;;3.45;2.33;;;18.00;99.90;;;16.78;72.40;100645.16;5039633;28;20089;-77
2023/09/23 08:43:38;;;;;;;5.82;2.15;;;17.90;99.90;;;16.69;73.21;100646.69;5036673;28;20036;-77
2023/09/23 08:46:11;;;;;;;6.30;2.80;;;17.70;99.90;;;16.54;73.47;100654.00;5036636;28;20076;-77
2023/09/23 08:48:38;;;;;;;5.60;2.08;;;17.60;99.90;;;16.43;74.20;100651.25;5049535;28;20041;-77
2023/09/23 08:51:07;;;;;;;4.22;2.42;;;17.40;99.90;;;16.39;74.57;100647.13;5038573;28;20526;-77
2023/09/23 08:53:37;;;;;;;7.70;3.15;;;17.30;99.90;;;16.26;75.10;100648.97;5041233;28;20403;-77
2023/09/23 08:56:04;;;;;;;7.15;2.40;;;17.30;99.90;;;16.21;75.42;100651.97;5052393;28;20029;-76
2023/09/23 08:58:30;;;;;;;7.55;3.10;;;17.20;99.90;;;16.11;75.19;100645.59;5019148;28;20028;-76
2023/09/23 09:00:56;;;;;;;7.38;2.80;;;17.10;99.90;;;16.09;75.52;100643.06;5051530;28;20029;-76
2023/09/23 09:03:23;;;;;;;7.93;3.10;;;17.10;99.90;;;16.09;75.65;100647.50;5050492;28;20044;-76
2023/09/23 09:05:49;;;;;;;5.55;2.90;;;17.00;99.90;;;16.09;75.85;100651.03;5034662;28;20037;-76
2023/09/23 09:08:14;;;;;;;5.43;3.47;;;17.10;99.90;;;16.11;75.14;100654.44;5055196;28;20029;-76
2023/09/23 09:10:41;;;;;;;6.10;2.78;;;17.00;99.90;;;16.08;75.62;100649.31;5044219;28;20506;-76
2023/09/23 09:13:07;;;;;;;9.75;4.50;;;17.10;99.90;;;16.07;75.63;100655.63;5041846;28;20041;-76
2023/09/23 09:15:42;;;;;;;9.40;5.07;;;17.00;99.90;;;16.02;75.70;100651.56;5049991;28;20469;-77
2023/09/23 09:18:08;;;;;;;7.45;4.55;;;17.00;99.90;;;15.95;76.03;100656.47;5050275;28;20051;-76
2023/09/23 09:20:34;;;;;;;11.25;5.10;;;16.90;99.90;;;15.83;75.94;100659.97;5039127;28;20037;-76
2023/09/23 09:23:01;;;;;;;8.02;4.85;;;16.80;99.90;;;15.73;76.08;100663.28;5056402;28;20055;-76
2023/09/23 09:25:31;;;;;;;11.35;4.72;;;16.80;99.90;;;15.71;76.26;100674.94;5025974;28;20041;-75
2023/09/23 09:27:57;;;;;;;8.75;5.13;;;16.70;99.90;;;15.74;76.64;100680.03;5051636;28;20033;-76
2023/09/23 09:30:26;;;;;;;8.20;5.25;;;16.70;99.90;;;15.70;77.09;100684.69;5052865;28;20043;-76
2023/09/23 09:32:57;;;;;;;10.60;5.40;;;16.70;99.90;;;15.73;77.14;100681.00;5056255;28;20044;-76
2023/09/23 09:35:26;;;;;;;11.00;5.03;;;16.70;99.90;;;15.75;77.15;100692.38;5058652;28;20040;-77
2023/09/23 09:37:56;;;;;;;9.55;5.00;;;16.70;99.90;;;15.72;76.91;100698.75;5053429;28;20041;-76
2023/09/23 09:40:23;;;;;;;8.07;4.30;;;16.70;99.90;;;15.73;77.14;100699.59;5036483;28;20068;-76
2023/09/23 09:42:59;;;;;;;9.45;5.15;;;16.70;99.90;;;15.71;76.83;100706.78;5045128;28;20032;-76
2023/09/23 09:45:27;;;;;;;8.68;4.97;;;16.70;99.90;;;15.73;76.92;100708.41;5053700;28;20068;-76
2023/09/23 09:48:00;;;;;;;8.82;5.05;;;16.70;99.90;;;15.82;76.94;100706.91;5046181;28;20052;-76
2023/09/23 09:50:27;;;;;;;9.52;4.22;;;16.80;99.90;;;15.91;76.82;100708.94;5046924;28;20410;-76
2023/09/23 09:52:53;;;;;;;12.10;4.57;;;16.80;99.90;;;15.97;76.85;100702.34;5042795;28;20047;-76
2023/09/23 09:55:25;;;;;;;10.20;4.75;;;16.90;99.90;;;16.14;76.43;100699.38;5047698;28;20047;-76
2023/09/23 09:57:55;;;;;;;8.65;5.00;;;17.10;99.90;;;16.50;75.86;100704.81;5043756;28;20107;-76
2023/09/23 10:00:33;;;;;;;9.90;5.45;;;17.40;99.90;;;16.88;74.92;100711.88;5049728;28;20182;-76
2023/09/23 10:03:02;;;;;;;9.60;5.57;;;17.70;99.90;;;17.26;73.51;100722.34;5052306;28;20448;-77
2023/09/23 10:05:35;;;;;;;8.40;5.22;;;18.00;99.90;;;17.74;72.41;100729.38;5035553;28;20048;-76